Time;durP1;ratioP1;P1;durP2;ratioP2;P2;SDS_P1;SDS_P2;PMS_P1;PMS_P2;Temp;Humidity;BMP_temperature;BMP_pressure;BME280_temperature;BME280_humidity;BME280_pressure;Samples;Min_cycle;Max_cycle;Signal;HPM_P1;HPM_P2
2023/08/10 00:00:12;;;;;;;3.70;3.40;;;;;;;;;;5040646;28;20039;-76
2023/08/10 00:02:40;;;;;;;8.15;3.75;;;;;;;;;;5052329;28;20136;-76
2023/08/10 00:05:06;;;;;;;4.38;3.47;;;;;;;;;;5046288;28;20032;-78
2023/08/10 00:07:31;;;;;;;3.75;3.42;;;;;;;;;;5052521;28;20136;-77
2023/08/10 00:09:57;;;;;;;4.28;3.13;;;;;;;;;;5054759;28;20025;-78
2023/08/10 00:12:22;;;;;;;5.15;4.65;;;;;;;;;;5053654;28;20383;-77
2023/08/10 00:14:47;;;;;;;8.48;3.90;;;;;;;;;;5048752;28;20135;-77
2023/08/10 00:17:13;;;;;;;6.88;4.05;;;;;;;;;;5045462;28;20348;-77
2023/08/10 00:19:38;;;;;;;5.03;4.00;;;;;;;;;;5048345;28;20395;-77
2023/08/10 00:22:04;;;;;;;5.80;3.30;;;;;;;;;;5041786;28;20021;-76
2023/08/10 00:24:29;;;;;;;4.03;3.70;;;;;;;;;;5055040;28;20384;-76
2023/08/10 00:26:54;;;;;;;3.67;3.28;;;;;;;;;;5055320;28;20020;-76
2023/08/10 00:29:20;;;;;;;6.85;3.35;;;;;;;;;;5048802;28;20021;-77
2023/08/10 00:31:45;;;;;;;5.15;3.13;;;;;;;;;;5041122;28;20028;-76
2023/08/10 00:34:11;;;;;;;4.95;3.40;;;;;;;;;;5048106;28;20063;-80
2023/08/10 00:36:37;;;;;;;6.60;3.25;;;;;;;;;;5051749;28;20343;-77
2023/08/10 00:39:03;;;;;;;3.63;3.33;;;;;;;;;;5050068;28;20118;-78
2023/08/10 00:41:28;;;;;;;5.07;3.08;;;;;;;;;;5045031;28;20031;-77
2023/08/10 00:43:54;;;;;;;3.33;2.83;;;;;;;;;;5047520;28;20049;-78
2023/08/10 00:46:19;;;;;;;3.47;2.60;;;;;;;;;;5038664;28;20056;-76
2023/08/10 00:48:45;;;;;;;3.50;3.20;;;;;;;;;;5051188;28;20079;-78
2023/08/10 00:51:10;;;;;;;3.22;2.92;;;;;;;;;;5056373;28;20474;-77
2023/08/10 00:53:36;;;;;;;4.25;2.85;;;;;;;;;;5057412;28;20158;-78
2023/08/10 00:56:02;;;;;;;7.68;2.70;;;;;;;;;;5054659;28;20555;-77
2023/08/10 00:58:30;;;;;;;3.22;3.00;;;;;;;;;;5057649;28;20032;-77
2023/08/10 01:00:56;;;;;;;3.00;2.70;;;;;;;;;;5057917;28;20023;-78
2023/08/10 01:03:22;;;;;;;3.90;3.10;;;;;;;;;;5041853;28;20027;-77
2023/08/10 01:05:47;;;;;;;3.35;3.05;;;;;;;;;;5060064;28;20032;-76
2023/08/10 01:08:18;;;;;;;3.13;2.92;;;;;;;;;;5059615;28;20107;-77
2023/08/10 01:10:47;;;;;;;4.00;3.60;;;;;;;;;;5061833;28;20021;-77
2023/08/10 01:13:19;;;;;;;4.47;2.92;;;;;;;;;;5058494;28;20024;-77
2023/08/10 01:15:49;;;;;;;3.58;3.17;;;;;;;;;;5058221;28;20109;-76
2023/08/10 01:18:18;;;;;;;4.85;3.25;;;;;;;;;;5044334;28;20056;-76
2023/08/10 01:20:45;;;;;;;3.67;2.78;;;;;;;;;;5042643;28;20103;-78
2023/08/10 01:23:19;;;;;;;3.50;3.20;;;;;;;;;;5060474;28;20035;-78
2023/08/10 01:25:45;;;;;;;3.78;3.47;;;;;;;;;;5060982;28;20105;-77
2023/08/10 01:28:12;;;;;;;6.40;5.40;;;;;;;;;;5059841;28;20141;-76
2023/08/10 01:30:38;;;;;;;5.50;4.15;;;;;;;;;;5043764;28;20091;-76
2023/08/10 01:33:04;;;;;;;3.03;2.80;;;;;;;;;;5060756;28;20028;-76
2023/08/10 01:35:29;;;;;;;3.28;3.00;;;;;;;;;;5034918;28;20032;-77
2023/08/10 01:37:54;;;;;;;3.88;2.92;;;;;;;;;;5049704;28;20035;-77
2023/08/10 01:40:20;;;;;;;4.70;3.78;;;;;;;;;;5057625;28;20577;-76
2023/08/10 01:42:45;;;;;;;5.03;3.63;;;;;;;;;;5059752;28;20033;-78
2023/08/10 01:45:12;;;;;;;7.40;3.67;;;;;;;;;;5042852;28;20025;-76
2023/08/10 01:47:37;;;;;;;5.35;3.70;;;;;;;;;;5059507;28;20444;-76
2023/08/10 01:50:04;;;;;;;5.15;3.53;;;;;;;;;;5060832;28;20017;-75
2023/08/10 01:52:50;;;;;;;6.55;4.15;;;;;;;;;;5057542;28;20368;-77
2023/08/10 01:55:16;;;;;;;6.35;4.63;;;;;;;;;;5037868;28;20125;-76
2023/08/10 01:57:41;;;;;;;5.35;4.35;;;;;;;;;;5044855;28;20334;-76
2023/08/10 02:00:07;;;;;;;4.50;3.67;;;;;;;;;;5037906;28;20028;-76
2023/08/10 02:02:33;;;;;;;4.85;4.32;;;;;;;;;;5060921;28;20047;-75
2023/08/10 02:04:58;;;;;;;4.65;4.15;;;;;;;;;;5057556;28;20046;-75
2023/08/10 02:07:24;;;;;;;4.45;4.10;;;;;;;;;;5058654;28;20028;-77
2023/08/10 02:09:49;;;;;;;6.55;4.75;;;;;;;;;;5039869;28;20445;-76
2023/08/10 02:12:15;;;;;;;4.15;3.75;;;;;;;;;;5046248;28;20028;-77
2023/08/10 02:14:40;;;;;;;5.28;3.35;;;;;;;;;;5059299;28;20025;-76
2023/08/10 02:17:05;;;;;;;5.80;3.60;;;;;;;;;;5058467;28;20440;-76
2023/08/10 02:19:31;;;;;;;4.07;3.65;;;;;;;;;;5059067;28;20090;-76
2023/08/10 02:21:56;;;;;;;3.50;3.20;;;;;;;;;;5057235;28;20020;-77
2023/08/10 02:24:22;;;;;;;5.18;4.07;;;;;;;;;;5047050;28;20047;-77
2023/08/10 02:26:47;;;;;;;5.28;3.40;;;;;;;;;;5050741;28;20146;-76
2023/08/10 02:29:12;;;;;;;7.03;3.75;;;;;;;;;;5050236;28;20040;-77
2023/08/10 02:31:38;;;;;;;5.20;3.78;;;;;;;;;;5043238;28;20029;-77
2023/08/10 02:34:03;;;;;;;6.30;4.03;;;;;;;;;;5040920;28;20145;-77
2023/08/10 02:36:29;;;;;;;3.92;3.63;;;;;;;;;;5045459;28;20066;-79
2023/08/10 02:38:54;;;;;;;4.30;3.55;;;;;;;;;;5057199;28;20456;-77
2023/08/10 02:41:20;;;;;;;4.15;3.75;;;;;;;;;;5057317;28;20024;-77
2023/08/10 02:43:45;;;;;;;4.95;3.70;;;;;;;;;;5056146;28;20048;-77
2023/08/10 02:46:10;;;;;;;6.28;3.67;;;;;;;;;;5044400;28;20060;-76
2023/08/10 02:48:36;;;;;;;4.50;3.55;;;;;;;;;;5040819;28;20131;-74
2023/08/10 02:51:02;;;;;;;4.53;3.97;;;;;;;;;;5056264;28;20035;-77
2023/08/10 02:53:27;;;;;;;4.75;4.28;;;;;;;;;;5060556;28;20025;-76
2023/08/10 02:55:52;;;;;;;4.10;3.60;;;;;;;;;;5050622;28;20328;-75
2023/08/10 02:58:20;;;;;;;4.43;4.03;;;;;;;;;;5047280;28;20055;-78
2023/08/10 03:00:45;;;;;;;4.40;4.00;;;;;;;;;;5040049;28;20721;-76
2023/08/10 03:03:10;;;;;;;4.63;4.22;;;;;;;;;;5057307;28;20024;-77
2023/08/10 03:05:36;;;;;;;5.03;4.00;;;;;;;;;;5036675;28;20047;-76
2023/08/10 03:08:01;;;;;;;4.15;3.85;;;;;;;;;;5037296;28;20033;-78
2023/08/10 03:10:26;;;;;;;4.28;3.97;;;;;;;;;;5042772;28;20024;-78
2023/08/10 03:12:52;;;;;;;4.82;4.43;;;;;;;;;;5056674;28;20028;-78
2023/08/10 03:15:17;;;;;;;5.07;4.47;;;;;;;;;;5056448;28;20101;-77
2023/08/10 03:17:43;;;;;;;5.30;4.78;;;;;;;;;;5045156;28;20111;-76
2023/08/10 03:20:16;;;;;;;5.68;4.30;;;;;;;;;;5038461;28;20016;-76
2023/08/10 03:22:42;;;;;;;4.88;4.38;;;;;;;;;;5056179;28;20048;-76
2023/08/10 03:25:08;;;;;;;6.15;4.68;;;;;;;;;;5043063;28;21418;-75
2023/08/10 03:27:33;;;;;;;4.80;4.05;;;;;;;;;;5039651;28;20148;-76
2023/08/10 03:29:59;;;;;;;4.60;4.20;;;;;;;;;;5057600;28;20025;-75
2023/08/10 03:32:24;;;;;;;4.30;3.90;;;;;;;;;;5039855;28;20047;-74
2023/08/10 03:34:50;;;;;;;6.38;4.65;;;;;;;;;;5044214;28;20063;-75
2023/08/10 03:37:15;;;;;;;4.63;4.32;;;;;;;;;;5058627;28;20040;-78
2023/08/10 03:39:41;;;;;;;7.38;4.88;;;;;;;;;;5057349;28;20400;-75
2023/08/10 03:42:06;;;;;;;5.40;4.78;;;;;;;;;;5041567;28;20056;-75
2023/08/10 03:44:32;;;;;;;5.20;4.70;;;;;;;;;;5045629;28;20462;-76
2023/08/10 03:46:57;;;;;;;4.60;4.20;;;;;;;;;;5034717;28;20471;-75
2023/08/10 03:49:23;;;;;;;4.60;4.20;;;;;;;;;;5052742;28;20087;-75
2023/08/10 03:51:50;;;;;;;5.10;4.38;;;;;;;;;;5055448;28;20039;-75
2023/08/10 03:54:15;;;;;;;4.30;3.97;;;;;;;;;;5048192;28;20036;-75
2023/08/10 03:56:41;;;;;;;3.90;3.60;;;;;;;;;;5052185;28;20024;-75
2023/08/10 03:59:06;;;;;;;7.50;4.07;;;;;;;;;;5057471;28;20170;-75
2023/08/10 04:01:31;;;;;;;4.82;4.43;;;;;;;;;;5049946;28;20059;-76
2023/08/10 04:03:57;;;;;;;5.15;4.10;;;;;;;;;;5039106;28;20024;-76
2023/08/10 04:06:22;;;;;;;4.47;3.90;;;;;;;;;;5042210;28;20025;-77
2023/08/10 04:08:48;;;;;;;4.85;4.45;;;;;;;;;;5044181;28;20360;-76
2023/08/10 04:11:13;;;;;;;5.07;4.68;;;;;;;;;;5040562;28;20359;-76
2023/08/10 04:13:39;;;;;;;4.57;4.28;;;;;;;;;;5043935;28;20032;-75
2023/08/10 04:16:04;;;;;;;5.13;4.55;;;;;;;;;;5040839;28;20040;-77
2023/08/10 04:18:30;;;;;;;7.13;4.63;;;;;;;;;;5034492;28;20151;-75
2023/08/10 04:20:55;;;;;;;6.30;4.45;;;;;;;;;;5050463;28;20044;-76
2023/08/10 04:23:21;;;;;;;4.95;4.43;;;;;;;;;;5060197;28;20044;-77
2023/08/10 04:25:46;;;;;;;4.95;4.15;;;;;;;;;;5058949;28;20029;-75
2023/08/10 04:28:12;;;;;;;4.53;3.65;;;;;;;;;;5053847;28;20028;-76
2023/08/10 04:30:38;;;;;;;3.88;3.58;;;;;;;;;;5051170;28;20032;-75
2023/08/10 04:33:03;;;;;;;4.10;3.80;;;;;;;;;;5062426;28;20028;-77
2023/08/10 04:35:29;;;;;;;3.72;3.42;;;;;;;;;;5045592;28;20368;-75
2023/08/10 04:37:54;;;;;;;4.07;3.67;;;;;;;;;;5059864;28;20277;-77
2023/08/10 04:40:20;;;;;;;5.38;3.67;;;;;;;;;;5061631;28;20597;-76
2023/08/10 04:42:46;;;;;;;4.22;3.92;;;;;;;;;;5060225;28;20081;-76
2023/08/10 04:45:11;;;;;;;3.83;3.53;;;;;;;;;;5058721;28;20036;-76
2023/08/10 04:47:37;;;;;;;4.00;3.60;;;;;;;;;;5058706;28;20025;-75
2023/08/10 04:50:03;;;;;;;4.28;3.95;;;;;;;;;;5042973;28;20077;-74
2023/08/10 04:52:28;;;;;;;3.53;3.00;;;;;;;;;;5042943;28;20017;-74
2023/08/10 04:54:54;;;;;;;4.10;3.53;;;;;;;;;;5053250;28;20309;-74
2023/08/10 04:57:19;;;;;;;4.85;3.95;;;;;;;;;;5058716;28;20492;-74
2023/08/10 04:59:44;;;;;;;4.45;4.13;;;;;;;;;;5059609;28;20031;-73
2023/08/10 05:02:10;;;;;;;5.18;3.83;;;;;;;;;;5058016;28;20025;-75
2023/08/10 05:04:35;;;;;;;4.22;3.53;;;;;;;;;;5057969;28;20028;-74
2023/08/10 05:07:01;;;;;;;7.80;3.80;;;;;;;;;;5058509;28;20035;-73
2023/08/10 05:09:26;;;;;;;4.38;3.78;;;;;;;;;;5058984;28;20150;-72
2023/08/10 05:11:52;;;;;;;4.32;3.92;;;;;;;;;;5061876;28;20175;-72
2023/08/10 05:14:17;;;;;;;4.50;4.10;;;;;;;;;;5061369;28;20024;-72
2023/08/10 05:16:42;;;;;;;6.78;3.97;;;;;;;;;;5058352;28;20428;-75
2023/08/10 05:19:08;;;;;;;4.65;4.22;;;;;;;;;;5058813;28;20166;-72
2023/08/10 05:21:33;;;;;;;5.32;4.82;;;;;;;;;;5074959;28;20432;-73
2023/08/10 05:23:58;;;;;;;5.65;4.97;;;;;;;;;;5058920;28;20998;-75
2023/08/10 05:26:24;;;;;;;5.15;4.65;;;;;;;;;;5060056;28;20400;-72
2023/08/10 05:28:49;;;;;;;5.40;4.90;;;;;;;;;;5060779;28;20431;-73
2023/08/10 05:31:15;;;;;;;5.22;4.82;;;;;;;;;;5060107;28;20503;-73
2023/08/10 05:33:40;;;;;;;5.35;4.85;;;;;;;;;;5059356;28;20033;-73
2023/08/10 05:36:07;;;;;;;5.53;4.85;;;;;;;;;;5056910;28;20368;-73
2023/08/10 05:38:32;;;;;;;5.20;4.80;;;;;;;;;;5060880;28;20102;-73
2023/08/10 05:40:57;;;;;;;5.90;4.97;;;;;;;;;;5056914;28;20024;-74
2023/08/10 05:43:23;;;;;;;6.28;5.30;;;;;;;;;;5060472;28;20037;-73
2023/08/10 05:45:49;;;;;;;5.78;5.28;;;;;;;;;;5057974;28;20070;-73
2023/08/10 05:48:14;;;;;;;5.57;5.18;;;;;;;;;;5057926;28;20504;-75
2023/08/10 05:50:40;;;;;;;5.90;5.43;;;;;;;;;;5059358;28;20013;-74
2023/08/10 05:53:08;;;;;;;5.47;5.07;;;;;;;;;;5059344;28;20820;-75
2023/08/10 05:55:33;;;;;;;5.95;5.28;;;;;;;;;;5062173;28;20036;-74
2023/08/10 05:57:59;;;;;;;7.32;6.32;;;;;;;;;;5077653;28;20040;-74
2023/08/10 06:00:24;;;;;;;9.98;8.50;;;;;;;;;;5059642;28;20462;-74
2023/08/10 06:02:51;;;;;;;9.70;8.65;;;;;;;;;;5057127;28;20130;-75
2023/08/10 06:05:16;;;;;;;7.75;7.03;;;;;;;;;;5059606;28;20385;-76
2023/08/10 06:07:42;;;;;;;8.73;7.57;;;;;;;;;;5059638;28;20039;-75
2023/08/10 06:10:07;;;;;;;7.38;6.78;;;;;;;;;;5057456;28;20446;-76
2023/08/10 06:12:33;;;;;;;6.28;5.68;;;;;;;;;;5057875;28;20492;-76
2023/08/10 06:14:58;;;;;;;5.25;4.72;;;;;;;;;;5057329;28;20035;-75
2023/08/10 06:17:24;;;;;;;7.72;7.03;;;;;;;;;;5058326;28;20037;-76
2023/08/10 06:19:53;;;;;;;7.05;6.40;;;;;;;;;;5058980;28;20044;-75
2023/08/10 06:22:19;;;;;;;4.68;4.28;;;;;;;;;;5059059;28;20996;-75
2023/08/10 06:24:44;;;;;;;4.32;3.90;;;;;;;;;;5058785;28;20082;-75
2023/08/10 06:27:10;;;;;;;5.25;4.03;;;;;;;;;;5060429;28;20041;-76
2023/08/10 06:29:35;;;;;;;4.70;3.90;;;;;;;;;;5055924;28;20447;-76
2023/08/10 06:32:02;;;;;;;4.20;3.80;;;;;;;;;;5057803;28;20447;-74
2023/08/10 06:34:27;;;;;;;3.97;3.67;;;;;;;;;;5056603;28;20024;-76
2023/08/10 06:36:53;;;;;;;3.90;3.60;;;;;;;;;;5059052;28;20051;-76
2023/08/10 06:39:19;;;;;;;5.15;3.35;;;;;;;;;;5057217;28;20619;-74
2023/08/10 06:41:44;;;;;;;5.85;3.92;;;;;;;;;;5057638;28;20103;-75
2023/08/10 06:44:10;;;;;;;4.72;4.32;;;;;;;;;;5056698;28;20024;-74
2023/08/10 06:46:35;;;;;;;5.10;4.57;;;;;;;;;;5058705;28;20044;-75
2023/08/10 06:49:01;;;;;;;4.97;4.57;;;;;;;;;;5058549;28;20036;-77
2023/08/10 06:51:27;;;;;;;5.88;4.55;;;;;;;;;;5057201;28;20104;-77
2023/08/10 06:53:52;;;;;;;4.47;4.10;;;;;;;;;;5055481;28;20048;-77
2023/08/10 06:56:17;;;;;;;5.25;4.70;;;;;;;;;;5057195;28;20032;-76
2023/08/10 06:58:43;;;;;;;4.43;4.10;;;;;;;;;;5057998;28;20111;-75
2023/08/10 07:01:08;;;;;;;4.80;4.40;;;;;;;;;;5058203;28;20440;-75
2023/08/10 07:03:35;;;;;;;4.60;4.20;;;;;;;;;;5058184;28;20371;-75
2023/08/10 07:06:01;;;;;;;4.68;3.97;;;;;;;;;;5058831;28;20115;-76
2023/08/10 07:08:26;;;;;;;4.15;3.75;;;;;;;;;;5056495;28;20434;-76
2023/08/10 07:10:52;;;;;;;4.07;3.67;;;;;;;;;;5056953;28;20013;-75
2023/08/10 07:13:17;;;;;;;3.80;3.20;;;;;;;;;;5059122;28;20056;-77
2023/08/10 07:15:44;;;;;;;6.32;3.38;;;;;;;;;;5058358;28;20033;-75
2023/08/10 07:18:09;;;;;;;3.35;3.00;;;;;;;;;;5058687;28;20404;-75
2023/08/10 07:20:35;;;;;;;5.47;3.70;;;;;;;;;;5054926;28;20023;-76
2023/08/10 07:23:01;;;;;;;3.97;3.47;;;;;;;;;;5057412;28;20021;-77
2023/08/10 07:25:27;;;;;;;3.38;3.08;;;;;;;;;;5054152;28;20475;-76
2023/08/10 07:27:52;;;;;;;3.65;3.20;;;;;;;;;;5058533;28;20517;-76
2023/08/10 07:30:18;;;;;;;4.57;3.17;;;;;;;;;;5052697;28;20056;-76
2023/08/10 07:32:44;;;;;;;2.95;2.65;;;;;;;;;;5056925;28;20060;-76
2023/08/10 07:35:09;;;;;;;3.20;2.90;;;;;;;;;;5055185;28;20112;-76
2023/08/10 07:37:36;;;;;;;3.08;2.70;;;;;;;;;;5059375;28;20128;-76
2023/08/10 07:40:04;;;;;;;2.78;2.45;;;;;;;;;;5057161;28;20044;-76
2023/08/10 07:42:29;;;;;;;2.65;2.45;;;;;;;;;;5054452;28;20759;-75
2023/08/10 07:44:55;;;;;;;2.53;2.13;;;;;;;;;;5054994;28;20036;-76
2023/08/10 07:47:20;;;;;;;6.07;2.30;;;;;;;;;;5055536;28;20479;-76
2023/08/10 07:49:46;;;;;;;4.00;2.50;;;;;;;;;;5060852;28;20020;-76
2023/08/10 07:52:11;;;;;;;4.75;2.75;;;;;;;;;;5055750;28;20471;-75
2023/08/10 07:54:36;;;;;;;3.83;2.58;;;;;;;;;;5057895;28;20630;-75
2023/08/10 07:57:02;;;;;;;2.33;2.10;;;;;;;;;;5062743;28;20036;-75
2023/08/10 07:59:27;;;;;;;2.63;2.40;;;;;;;;;;5060539;28;20344;-76
2023/08/10 08:01:53;;;;;;;2.40;2.20;;;;;;;;;;5059100;28;20047;-77
2023/08/10 08:04:18;;;;;;;2.03;1.70;;;;;;;;;;5059586;28;20048;-77
2023/08/10 08:06:43;;;;;;;2.40;2.20;;;;;;;;;;5060741;28;20171;-75
2023/08/10 08:09:10;;;;;;;2.78;1.85;;;;;;;;;;5062780;28;20086;-76
2023/08/10 08:11:35;;;;;;;2.53;1.80;;;;;;;;;;5060545;28;20119;-79
2023/08/10 08:14:02;;;;;;;2.95;1.90;;;;;;;;;;5062344;28;20430;-75
2023/08/10 08:16:27;;;;;;;1.92;1.48;;;;;;;;;;5060615;28;20428;-75
2023/08/10 08:18:55;;;;;;;1.55;1.45;;;;;;;;;;5061142;28;20104;-75
2023/08/10 08:21:22;;;;;;;2.33;1.70;;;;;;;;;;5060145;28;20067;-76
2023/08/10 08:23:48;;;;;;;1.88;1.50;;;;;;;;;;5060862;28;20033;-76
2023/08/10 08:26:14;;;;;;;1.35;1.25;;;;;;;;;;5059137;28;20028;-76
2023/08/10 08:28:39;;;;;;;1.65;1.30;;;;;;;;;;5061639;28;20337;-76
2023/08/10 09:07:39;;;;;;;2.03;1.20;;;;;;;;;;5058781;28;20109;-75
2023/08/10 09:10:04;;;;;;;2.95;1.40;;;;;;;;;;5058373;28;20466;-74
2023/08/10 09:12:34;;;;;;;1.73;1.63;;;;;;;;;;5059855;28;20064;-75
2023/08/10 09:15:06;;;;;;;1.58;1.40;;;;;;;;;;5059661;28;20039;-75
2023/08/10 09:17:32;;;;;;;2.95;1.33;;;;;;;;;;5059401;28;20036;-74
2023/08/10 09:19:58;;;;;;;3.20;1.90;;;;;;;;;;5059152;28;20040;-76
2023/08/10 09:22:33;;;;;;;10.82;5.43;;;;;;;;;;5059616;28;20032;-75
2023/08/10 09:24:59;;;;;;;3.45;2.40;;;;;;;;;;5076378;28;20021;-74
2023/08/10 09:27:28;;;;;;;2.92;1.95;;;;;;;;;;5058099;28;20024;-75
2023/08/10 09:29:58;;;;;;;2.55;1.83;;;;;;;;;;5059019;28;20344;-74
2023/08/10 09:32:23;;;;;;;2.95;2.35;;;;;;;;;;5058885;28;20377;-74
2023/08/10 09:34:49;;;;;;;2.38;2.17;;;;;;;;;;5058485;28;20025;-74
2023/08/10 09:37:14;;;;;;;3.08;2.17;;;;;;;;;;5057621;28;20094;-77
2023/08/10 09:39:39;;;;;;;2.22;2.13;;;;;;;;;;5057273;28;20052;-75
2023/08/10 09:42:05;;;;;;;2.95;2.42;;;;;;;;;;5058563;28;20114;-74
2023/08/10 09:44:46;;;;;;;2.55;2.10;;;;;;;;;;5059344;28;20174;-76
2023/08/10 09:47:12;;;;;;;2.55;2.35;;;;;;;;;;5060647;28;20441;-74
2023/08/10 09:49:55;;;;;;;2.95;2.28;;;;;;;;;;5060141;28;20047;-75
2023/08/10 09:52:21;;;;;;;2.35;2.15;;;;;;;;;;5059774;28;20085;-76
2023/08/10 09:54:47;;;;;;;3.67;2.60;;;;;;;;;;5060607;28;20032;-75
2023/08/10 09:57:13;;;;;;;1.75;1.65;;;;;;;;;;5056874;28;20032;-75
2023/08/10 09:59:38;;;;;;;1.67;1.58;;;;;;;;;;5059832;28;20036;-74
2023/08/10 10:02:07;;;;;;;1.98;1.80;;;;;;;;;;5057413;28;20024;-75
2023/08/10 10:04:33;;;;;;;1.90;1.70;;;;;;;;;;5061504;28;20398;-76
2023/08/10 10:06:59;;;;;;;1.88;1.65;;;;;;;;;;5061373;28;20024;-75
2023/08/10 10:09:25;;;;;;;1.98;1.73;;;;;;;;;;5060890;28;20054;-75
2023/08/10 10:11:50;;;;;;;2.42;2.20;;;;;;;;;;5058863;28;20012;-76
2023/08/10 10:14:16;;;;;;;4.55;1.88;;;;;;;;;;5059650;28;20119;-75
2023/08/10 10:16:41;;;;;;;4.10;2.03;;;;;;;;;;5057695;28;20029;-76
2023/08/10 10:19:07;;;;;;;7.03;2.70;;;;;;;;;;5058470;28;20372;-75
2023/08/10 10:21:33;;;;;;;18.48;4.72;;;;;;;;;;5057514;28;20012;-75
2023/08/10 10:24:01;;;;;;;17.98;5.82;;;;;;;;;;5059588;28;20333;-75
2023/08/10 10:26:26;;;;;;;8.20;3.80;;;;;;;;;;5058746;28;20038;-77
2023/08/10 10:29:15;;;;;;;13.45;3.78;;;;;;;;;;5057144;28;20439;-75
2023/08/10 10:31:41;;;;;;;7.38;2.22;;;;;;;;;;5058096;28;20131;-76
2023/08/10 10:34:10;;;;;;;2.63;1.92;;;;;;;;;;5042573;28;20131;-77
2023/08/10 10:36:38;;;;;;;5.10;2.30;;;;;;;;;;5071988;28;20067;-76
2023/08/10 10:39:07;;;;;;;4.05;2.15;;;;;;;;;;5057835;28;20053;-75
2023/08/10 10:41:35;;;;;;;2.75;2.50;;;;;;;;;;5055513;28;20021;-81
2023/08/10 10:44:02;;;;;;;3.08;2.50;;;;;;;;;;5058783;28;20041;-76
2023/08/10 10:46:34;;;;;;;2.63;2.13;;;;;;;;;;5059706;28;20040;-74
2023/08/10 10:48:59;;;;;;;4.95;2.35;;;;;;;;;;5056256;28;20372;-76
2023/08/10 10:51:25;;;;;;;3.10;2.65;;;;;;;;;;5058723;28;20035;-74
2023/08/10 10:53:54;;;;;;;7.03;3.58;;;;;;;;;;5059002;28;20043;-75
2023/08/10 10:56:22;;;;;;;19.13;6.70;;;;;;;;;;5058597;28;20063;-76
2023/08/10 10:58:48;;;;;;;15.73;5.70;;;;;;;;;;5056251;28;20090;-74
2023/08/10 11:01:14;;;;;;;30.15;8.80;;;;;;;;;;5057755;28;20347;-74
2023/08/10 11:03:42;;;;;;;22.02;6.95;;;;;;;;;;5057387;28;20462;-75
2023/08/10 11:06:18;;;;;;;18.65;8.00;;;;;;;;;;5056230;28;20029;-75
2023/08/10 11:08:47;;;;;;;12.52;5.18;;;;;;;;;;5057213;28;20102;-75
2023/08/10 11:11:13;;;;;;;8.00;3.60;;;;;;;;;;5058464;28;20145;-75
2023/08/10 11:13:38;;;;;;;4.03;2.97;;;;;;;;;;5056133;28;20441;-76
2023/08/10 11:16:04;;;;;;;4.15;2.78;;;;;;;;;;5058319;28;20505;-75
2023/08/10 11:18:30;;;;;;;4.07;2.10;;;;;;;;;;5057325;28;20032;-75
2023/08/10 11:20:56;;;;;;;3.35;2.20;;;;;;;;;;5059352;28;20103;-75
2023/08/10 11:23:23;;;;;;;2.42;2.00;;;;;;;;;;5057268;28;20119;-75
2023/08/10 11:25:50;;;;;;;3.38;2.47;;;;;;;;;;5059255;28;20025;-76
2023/08/10 11:28:20;;;;;;;6.47;2.50;;;;;;;;;;5059701;28;20032;-77
2023/08/10 11:30:46;;;;;;;2.22;1.63;;;;;;;;;;5057718;28;20102;-76
2023/08/10 11:33:11;;;;;;;2.15;1.75;;;;;;;;;;5059006;28;20063;-75
2023/08/10 11:35:36;;;;;;;1.98;1.83;;;;;;;;;;5055698;28;20029;-75
2023/08/10 11:38:02;;;;;;;1.60;1.50;;;;;;;;;;5056889;28;20075;-75
2023/08/10 11:40:28;;;;;;;1.77;1.40;;;;;;;;;;5057189;28;20052;-75
2023/08/10 11:43:03;;;;;;;1.73;1.40;;;;;;;;;;5052200;28;20024;-75
2023/08/10 11:45:29;;;;;;;1.92;1.30;;;;;;;;;;5058950;28;21016;-76
2023/08/10 11:47:57;;;;;;;1.67;1.52;;;;;;;;;;5059500;28;20021;-75
2023/08/10 11:50:23;;;;;;;2.03;1.50;;;;;;;;;;5059643;28;20025;-75
2023/08/10 11:52:49;;;;;;;1.85;1.38;;;;;;;;;;5059731;28;20028;-77
2023/08/10 11:55:16;;;;;;;3.28;1.58;;;;;;;;;;5055952;28;20029;-77
2023/08/10 11:57:42;;;;;;;1.50;1.40;;;;;;;;;;5056186;28;20028;-77
2023/08/10 12:00:22;;;;;;;1.48;1.38;;;;;;;;;;5056958;28;20360;-76
2023/08/10 12:03:13;;;;;;;1.88;1.40;;;;;;;;;;5057705;28;20099;-76
2023/08/10 12:05:40;;;;;;;3.70;1.45;;;;;;;;;;5055532;28;20422;-77
2023/08/10 12:08:09;;;;;;;1.90;1.27;;;;;;;;;;5055234;28;20016;-78
2023/08/10 12:10:39;;;;;;;1.70;1.35;;;;;;;;;;5058873;28;20456;-77
2023/08/10 12:13:05;;;;;;;2.53;1.08;;;;;;;;;;5056604;28;20028;-77
2023/08/10 12:15:33;;;;;;;1.58;1.35;;;;;;;;;;5056499;28;20032;-76
2023/08/10 12:18:00;;;;;;;1.88;1.10;;;;;;;;;;5057248;28;20037;-79
2023/08/10 12:20:25;;;;;;;1.50;1.40;;;;;;;;;;5055277;28;20024;-75
2023/08/10 12:22:52;;;;;;;1.50;1.40;;;;;;;;;;5057591;28;20024;-79
2023/08/10 12:25:18;;;;;;;1.55;1.45;;;;;;;;;;5055719;28;20181;-77
2023/08/10 12:27:43;;;;;;;1.92;1.13;;;;;;;;;;5055660;28;20432;-77
2023/08/10 12:30:09;;;;;;;1.70;1.10;;;;;;;;;;5059869;28;20080;-76
2023/08/10 12:32:34;;;;;;;1.20;1.13;;;;;;;;;;5054675;28;20021;-75
2023/08/10 12:34:59;;;;;;;5.38;1.30;;;;;;;;;;5057336;28;20032;-76
2023/08/10 12:37:25;;;;;;;1.25;1.17;;;;;;;;;;5058215;28;20048;-77
2023/08/10 12:39:50;;;;;;;4.50;1.10;;;;;;;;;;5070859;28;20371;-75
2023/08/10 12:42:16;;;;;;;2.63;1.17;;;;;;;;;;5057012;28;20020;-76
2023/08/10 12:44:41;;;;;;;1.45;1.20;;;;;;;;;;5059860;28;20032;-76
2023/08/10 12:47:06;;;;;;;1.95;1.35;;;;;;;;;;5059344;28;20047;-77
2023/08/10 12:49:32;;;;;;;1.80;1.20;;;;;;;;;;5061758;28;20032;-76
2023/08/10 12:51:57;;;;;;;3.00;1.13;;;;;;;;;;5062311;28;20128;-77
2023/08/10 12:54:22;;;;;;;1.38;1.17;;;;;;;;;;5060231;28;20406;-76
2023/08/10 12:56:48;;;;;;;0.95;0.85;;;;;;;;;;5063598;28;20044;-76
2023/08/10 12:59:13;;;;;;;3.92;1.10;;;;;;;;;;5060070;28;20386;-75
2023/08/10 13:01:39;;;;;;;2.38;1.13;;;;;;;;;;5062683;28;20031;-75
2023/08/10 13:04:04;;;;;;;1.70;1.05;;;;;;;;;;5061179;28;20033;-75
2023/08/10 13:06:29;;;;;;;1.40;0.93;;;;;;;;;;5060279;28;20066;-75
2023/08/10 13:08:56;;;;;;;0.90;0.90;;;;;;;;;;5061270;28;20096;-76
2023/08/10 13:11:22;;;;;;;4.88;0.93;;;;;;;;;;5059281;28;20124;-76
2023/08/10 13:13:47;;;;;;;3.03;1.17;;;;;;;;;;5058772;28;20111;-75
2023/08/10 13:16:12;;;;;;;1.20;1.17;;;;;;;;;;5060488;28;20040;-76
2023/08/10 13:18:38;;;;;;;0.95;0.90;;;;;;;;;;5059236;28;20056;-75
2023/08/10 13:21:03;;;;;;;5.30;1.20;;;;;;;;;;5060689;28;20040;-75
2023/08/10 13:23:28;;;;;;;1.55;1.10;;;;;;;;;;5061625;28;20348;-76
2023/08/10 13:25:54;;;;;;;1.10;1.00;;;;;;;;;;5058397;28;20115;-77
2023/08/10 13:28:20;;;;;;;2.58;1.10;;;;;;;;;;5059381;28;20423;-76
2023/08/10 13:30:45;;;;;;;1.05;0.95;;;;;;;;;;5058909;28;20013;-76
2023/08/10 13:33:10;;;;;;;2.55;1.13;;;;;;;;;;5061881;28;20403;-76
2023/08/10 13:35:36;;;;;;;2.03;1.00;;;;;;;;;;5060989;28;20415;-77
2023/08/10 13:38:01;;;;;;;1.15;0.95;;;;;;;;;;5059610;28;20345;-77
2023/08/10 13:40:27;;;;;;;2.17;1.05;;;;;;;;;;5059875;28;20838;-77
2023/08/10 13:42:52;;;;;;;1.13;0.80;;;;;;;;;;5058460;28;20420;-76
2023/08/10 13:45:18;;;;;;;1.05;0.88;;;;;;;;;;5060287;28;20020;-78
2023/08/10 13:47:43;;;;;;;1.65;1.00;;;;;;;;;;5061346;28;20043;-78
2023/08/10 13:50:09;;;;;;;1.08;0.98;;;;;;;;;;5057445;28;20059;-74
2023/08/10 13:52:34;;;;;;;2.33;1.00;;;;;;;;;;5054590;28;20021;-73
2023/08/10 13:55:03;;;;;;;0.80;0.80;;;;;;;;;;5055484;28;20460;-80
2023/08/10 13:57:28;;;;;;;1.03;0.90;;;;;;;;;;5052113;28;20051;-78
2023/08/10 13:59:54;;;;;;;1.05;0.95;;;;;;;;;;5057710;28;20024;-77
2023/08/10 14:02:20;;;;;;;2.50;1.30;;;;;;;;;;5058505;28;20051;-77
2023/08/10 14:04:45;;;;;;;1.55;0.80;;;;;;;;;;5058890;28;20035;-76
2023/08/10 14:07:12;;;;;;;1.02;0.90;;;;;;;;;;5056871;28;20033;-77
2023/08/10 14:09:37;;;;;;;0.95;0.85;;;;;;;;;;5057303;28;20021;-75
2023/08/10 14:12:02;;;;;;;5.57;1.20;;;;;;;;;;5059928;28;20032;-76
2023/08/10 14:14:29;;;;;;;2.25;1.13;;;;;;;;;;5058049;28;20428;-78
2023/08/10 14:16:54;;;;;;;1.83;1.00;;;;;;;;;;5060784;28;20039;-77
2023/08/10 14:19:21;;;;;;;3.78;0.90;;;;;;;;;;5057974;28;20064;-77
2023/08/10 14:21:47;;;;;;;1.08;0.93;;;;;;;;;;5054553;28;20028;-75
2023/08/10 14:24:12;;;;;;;2.00;1.00;;;;;;;;;;5056759;28;20848;-78
2023/08/10 14:26:38;;;;;;;3.20;0.95;;;;;;;;;;5051532;28;20464;-78
2023/08/10 14:29:03;;;;;;;3.00;0.88;;;;;;;;;;5043056;28;20082;-76
2023/08/10 14:31:28;;;;;;;1.58;0.85;;;;;;;;;;5043758;28;20021;-77
2023/08/10 14:33:54;;;;;;;1.55;0.90;;;;;;;;;;5053567;28;20035;-76
2023/08/10 14:36:19;;;;;;;0.75;0.75;;;;;;;;;;5058411;28;20099;-76
2023/08/10 14:38:45;;;;;;;1.75;0.98;;;;;;;;;;5065700;28;20048;-77
2023/08/10 14:41:11;;;;;;;0.80;0.80;;;;;;;;;;5043617;28;20141;-75
2023/08/10 14:43:37;;;;;;;1.13;1.02;;;;;;;;;;5040254;28;20020;-81
2023/08/10 14:46:02;;;;;;;0.80;0.73;;;;;;;;;;5052200;28;20600;-76
2023/08/10 14:48:28;;;;;;;1.17;1.08;;;;;;;;;;5052110;28;20033;-78
2023/08/10 14:50:53;;;;;;;1.35;0.90;;;;;;;;;;5053185;28;20272;-80
2023/08/10 14:53:18;;;;;;;1.30;1.08;;;;;;;;;;5051132;28;20151;-81
2023/08/10 14:55:44;;;;;;;2.88;1.10;;;;;;;;;;5050552;28;20032;-78
2023/08/10 14:58:09;;;;;;;2.30;0.90;;;;;;;;;;5053221;28;20124;-80
2023/08/10 15:00:34;;;;;;;1.50;1.10;;;;;;;;;;5053236;28;20108;-78
2023/08/10 15:03:00;;;;;;;2.08;1.00;;;;;;;;;;5052191;28;20109;-78
2023/08/10 15:05:26;;;;;;;1.25;0.98;;;;;;;;;;5052373;28;20016;-75
2023/08/10 15:07:52;;;;;;;1.98;0.93;;;;;;;;;;5048816;28;20020;-81
2023/08/10 15:10:17;;;;;;;1.40;1.25;;;;;;;;;;5047883;28;20096;-78
2023/08/10 15:12:45;;;;;;;1.65;1.02;;;;;;;;;;5052454;28;20374;-80